createdAt,value
2018-06-01T00:00:05.121Z,16.80
2018-06-01T00:02:08.523Z,16.70
2018-06-01T00:04:14.146Z,16.70
2018-06-01T00:06:19.076Z,16.70
2018-06-01T00:08:23.156Z,16.60
2018-06-01T00:10:26.571Z,16.60
2018-06-01T00:12:30.014Z,16.60
2018-06-01T00:14:35.444Z,16.60
2018-06-01T00:16:38.930Z,16.70
2018-06-01T00:18:43.067Z,16.60
2018-06-01T00:20:46.524Z,16.60
2018-06-01T00:22:49.908Z,16.60
2018-06-01T00:24:54.238Z,16.60
2018-06-01T00:26:59.029Z,16.60
2018-06-01T00:29:02.809Z,16.60
2018-06-01T00:31:08.027Z,16.50
2018-06-01T00:33:11.390Z,16.50
2018-06-01T00:35:14.798Z,16.50
2018-06-01T00:37:18.928Z,16.60
2018-06-01T00:39:22.420Z,16.60
2018-06-01T00:41:26.647Z,16.60
2018-06-01T00:43:30.049Z,16.60
2018-06-01T00:45:34.247Z,16.60
2018-06-01T00:47:37.683Z,16.60
2018-06-01T00:49:41.105Z,16.60
2018-06-01T00:51:46.577Z,16.60
2018-06-01T00:53:49.967Z,16.60
2018-06-01T00:55:53.497Z,16.60
2018-06-01T00:57:56.896Z,16.50
2018-06-01T01:00:00.299Z,16.50
2018-06-01T01:02:04.896Z,16.50
2018-06-01T01:04:08.316Z,16.60
2018-06-01T01:06:11.736Z,16.60
2018-06-01T01:08:17.146Z,16.60
2018-06-01T01:10:24.195Z,16.60
2018-06-01T01:12:27.733Z,16.50
2018-06-01T01:14:31.181Z,16.50
2018-06-01T01:16:34.782Z,16.50
2018-06-01T01:18:38.222Z,16.50
2018-06-01T01:20:41.604Z,16.60
2018-06-01T01:22:45.008Z,16.60
2018-06-01T01:24:50.611Z,16.60
2018-06-01T01:26:54.063Z,16.60
2018-06-01T01:28:57.561Z,16.50
2018-06-01T01:31:00.966Z,16.60
2018-06-01T01:33:05.296Z,16.60
2018-06-01T01:35:08.683Z,16.70
2018-06-01T01:37:12.187Z,16.70
2018-06-01T01:39:15.624Z,16.70
2018-06-01T01:41:19.828Z,16.80
2018-06-01T01:43:23.368Z,16.70
2018-06-01T01:45:26.942Z,16.80
2018-06-01T01:47:30.365Z,16.80
2018-06-01T01:49:34.566Z,16.70
2018-06-01T01:51:38.064Z,16.70
2018-06-01T01:53:41.537Z,16.70
2018-06-01T01:55:45.774Z,16.80
2018-06-01T01:57:49.172Z,16.80
2018-06-01T01:59:53.725Z,16.80
2018-06-01T02:01:57.190Z,16.70
2018-06-01T02:04:01.526Z,16.60
2018-06-01T02:06:05.700Z,16.60
2018-06-01T02:08:09.154Z,16.60
2018-06-01T02:10:12.537Z,16.60
2018-06-01T02:12:16.756Z,16.60
2018-06-01T02:14:20.204Z,16.60
2018-06-01T02:16:23.607Z,16.60
2018-06-01T02:18:28.086Z,16.50
2018-06-01T02:20:32.316Z,16.50
2018-06-01T02:22:35.750Z,16.50
2018-06-01T02:24:39.178Z,16.50
2018-06-01T02:26:42.592Z,16.50
2018-06-01T02:28:46.125Z,16.50
2018-06-01T02:30:50.297Z,16.60
2018-06-01T02:32:54.148Z,16.60
2018-06-01T02:34:57.570Z,16.50
2018-06-01T02:37:01.898Z,16.50
2018-06-01T02:39:06.200Z,16.40
2018-06-01T02:41:09.639Z,16.40
2018-06-01T02:43:13.059Z,16.40
2018-06-01T02:45:18.530Z,16.40
2018-06-01T02:47:22.143Z,16.30
2018-06-01T02:49:25.678Z,16.40
2018-06-01T02:51:29.098Z,16.40
2018-06-01T02:53:32.546Z,16.30
2018-06-01T02:55:35.950Z,16.30
2018-06-01T02:57:39.360Z,16.20
2018-06-01T02:59:42.755Z,16.20
2018-06-01T03:01:46.146Z,16.20
2018-06-01T03:03:49.537Z,16.20
2018-06-01T03:05:52.994Z,16.20
2018-06-01T03:07:56.417Z,16.20
2018-06-01T03:10:00.877Z,16.10
2018-06-01T03:12:04.300Z,16.10
2018-06-01T03:14:07.710Z,16.20
2018-06-01T03:16:11.097Z,16.30
2018-06-01T03:18:15.248Z,16.30
2018-06-01T03:20:18.618Z,16.30
2018-06-01T03:22:24.203Z,16.30
2018-06-01T03:24:27.905Z,16.40
2018-06-01T03:26:32.100Z,16.40
2018-06-01T03:28:35.609Z,16.30
2018-06-01T03:30:39.846Z,16.20
2018-06-01T03:32:43.244Z,16.20
2018-06-01T03:34:46.617Z,16.30
2018-06-01T03:36:50.003Z,16.20
2018-06-01T03:38:53.502Z,16.20
2018-06-01T03:40:56.881Z,16.20
2018-06-01T03:43:02.378Z,16.10
2018-06-01T03:45:05.746Z,16.20
2018-06-01T03:47:09.112Z,16.20
2018-06-01T03:49:12.533Z,16.30
2018-06-01T03:51:15.902Z,16.30
2018-06-01T03:53:20.082Z,16.30
2018-06-01T03:55:23.559Z,16.30
2018-06-01T03:57:26.917Z,16.30
2018-06-01T03:59:30.364Z,16.20
2018-06-01T04:01:33.755Z,16.30
2018-06-01T04:03:37.185Z,16.30
2018-06-01T04:05:40.586Z,16.40
2018-06-01T04:07:44.102Z,16.40
2018-06-01T04:09:47.462Z,16.40
2018-06-01T04:11:52.598Z,16.40
2018-06-01T04:13:56.790Z,16.40
2018-06-01T04:16:01.129Z,16.50
2018-06-01T04:20:12.078Z,16.50
2018-06-01T04:22:15.473Z,16.60
2018-06-01T04:24:19.679Z,16.60
2018-06-01T04:26:23.120Z,16.60
2018-06-01T04:28:26.537Z,16.70
2018-06-01T04:30:29.989Z,16.70
2018-06-01T04:32:34.132Z,16.80
2018-06-01T04:34:37.561Z,16.70
2018-06-01T04:36:40.919Z,16.80
2018-06-01T04:38:44.361Z,16.80
2018-06-01T04:40:47.734Z,16.80
2018-06-01T04:42:51.869Z,16.90
2018-06-01T04:44:56.027Z,16.90
2018-06-01T04:47:00.287Z,16.90
2018-06-01T04:49:04.481Z,17.00
2018-06-01T04:51:08.851Z,17.00
2018-06-01T04:53:12.271Z,17.10
2018-06-01T04:55:17.009Z,17.10
2018-06-01T04:57:20.946Z,17.00
2018-06-01T04:59:24.440Z,17.10
2018-06-01T05:01:27.840Z,17.10
2018-06-01T05:03:35.333Z,17.20
2018-06-01T05:05:38.750Z,17.30
2018-06-01T05:07:42.415Z,17.40
2018-06-01T05:09:48.359Z,17.30
2018-06-01T05:11:53.623Z,17.40
2018-06-01T05:13:57.043Z,17.30
2018-06-01T05:16:00.455Z,17.40
2018-06-01T05:18:03.875Z,17.40
2018-06-01T05:20:07.285Z,17.40
2018-06-01T05:22:10.653Z,17.40
2018-06-01T05:24:15.993Z,17.40
2018-06-01T05:26:19.432Z,17.40
2018-06-01T05:28:22.906Z,17.50
2018-06-01T05:30:27.057Z,17.60
2018-06-01T05:32:30.435Z,17.60
2018-06-01T05:34:34.617Z,17.50
2018-06-01T05:36:38.048Z,17.50
2018-06-01T05:38:41.449Z,17.60
2018-06-01T05:40:53.069Z,17.50
2018-06-01T05:42:56.497Z,17.50
2018-06-01T05:44:59.892Z,17.50
2018-06-01T05:47:03.300Z,17.50
2018-06-01T05:49:06.715Z,17.60
2018-06-01T05:51:10.101Z,17.50
2018-06-01T05:53:14.506Z,17.60
2018-06-01T05:55:17.895Z,17.60
2018-06-01T05:57:21.265Z,17.70
2018-06-01T05:59:24.681Z,17.60
2018-06-01T06:01:28.119Z,17.60
2018-06-01T06:03:31.510Z,17.70
2018-06-01T06:05:35.668Z,17.70
2018-06-01T06:07:39.053Z,17.70
2018-06-01T06:09:43.302Z,17.70
2018-06-01T06:11:46.695Z,17.70
2018-06-01T06:13:54.532Z,17.80
2018-06-01T06:15:57.894Z,17.80
2018-06-01T06:18:01.280Z,17.80
2018-06-01T06:20:06.318Z,17.80
2018-06-01T06:22:09.708Z,17.80
2018-06-01T06:24:15.356Z,17.80
2018-06-01T06:26:19.513Z,17.70
2018-06-01T06:28:23.744Z,17.70
2018-06-01T06:30:27.159Z,17.70
2018-06-01T06:32:33.806Z,17.70
2018-06-01T06:34:38.191Z,17.60
2018-06-01T06:36:41.567Z,17.60
2018-06-01T06:38:44.992Z,17.60
2018-06-01T06:40:48.490Z,17.60
2018-06-01T06:42:51.897Z,17.60
2018-06-01T06:44:55.401Z,17.60
2018-06-01T06:46:58.900Z,17.50
2018-06-01T06:49:02.259Z,17.50
2018-06-01T06:51:05.718Z,17.50
2018-06-01T06:53:09.092Z,17.60
2018-06-01T06:55:12.554Z,17.60
2018-06-01T06:57:15.998Z,17.60
2018-06-01T06:59:24.240Z,17.60
2018-06-01T07:01:29.579Z,17.50
2018-06-01T07:03:32.976Z,17.50
2018-06-01T07:05:37.225Z,17.50
2018-06-01T07:07:42.476Z,17.50
2018-06-01T07:09:46.693Z,17.50
2018-06-01T07:11:50.061Z,17.50
2018-06-01T07:13:53.479Z,17.50
2018-06-01T07:15:56.921Z,17.50
2018-06-01T07:18:00.460Z,17.60
2018-06-01T07:20:04.620Z,17.70
2018-06-01T07:22:08.795Z,17.70
2018-06-01T07:24:12.960Z,17.70
2018-06-01T07:26:16.365Z,17.70
2018-06-01T07:28:19.907Z,17.70
2018-06-01T07:30:24.334Z,17.90
2018-06-01T07:32:28.385Z,18.00
2018-06-01T07:34:31.872Z,18.00
2018-06-01T07:36:35.313Z,18.10
2018-06-01T07:38:38.680Z,18.20
2018-06-01T07:40:42.092Z,18.30
2018-06-01T07:42:45.510Z,18.50
2018-06-01T07:44:49.657Z,18.50
2018-06-01T07:46:53.228Z,18.50
2018-06-01T07:48:57.378Z,18.60
2018-06-01T07:51:00.795Z,18.70
2018-06-01T07:53:04.167Z,18.70
2018-06-01T07:55:07.944Z,18.70
2018-06-01T07:57:11.379Z,18.70
2018-06-01T07:59:14.797Z,18.80
2018-06-01T08:01:18.280Z,18.80
2018-06-01T08:03:23.610Z,18.90
2018-06-01T08:05:30.245Z,18.80
2018-06-01T08:07:33.603Z,18.90
2018-06-01T08:09:37.747Z,19.00
2018-06-01T08:11:42.289Z,19.00
2018-06-01T08:13:46.958Z,19.00
2018-06-01T08:15:51.736Z,19.10
2018-06-01T08:17:58.040Z,19.10
2018-06-01T08:20:02.758Z,19.10
2018-06-01T08:22:07.179Z,19.20
2018-06-01T08:24:11.930Z,19.20
2018-06-01T08:26:17.800Z,19.30
2018-06-01T08:28:22.753Z,19.30
2018-06-01T08:30:27.229Z,19.40
2018-06-01T08:32:32.594Z,19.40
2018-06-01T08:34:37.602Z,19.50
2018-06-01T08:36:41.889Z,19.70
2018-06-01T08:38:46.060Z,19.80
2018-06-01T08:40:50.228Z,19.80
2018-06-01T08:42:53.570Z,19.80
2018-06-01T08:44:56.943Z,19.90
2018-06-01T08:47:00.348Z,20.00
2018-06-01T08:49:03.987Z,20.10
2018-06-01T08:51:08.160Z,20.70
2018-06-01T08:53:16.936Z,20.60
2018-06-01T08:55:21.424Z,20.90
2018-06-01T08:57:25.826Z,21.10
2018-06-01T08:59:35.269Z,21.20
2018-06-01T09:01:39.471Z,21.20
2018-06-01T09:03:43.000Z,21.30
2018-06-01T09:05:46.410Z,21.30
2018-06-01T09:07:49.855Z,21.40
2018-06-01T09:09:53.244Z,21.70
2018-06-01T09:11:56.631Z,21.70
2018-06-01T09:14:00.003Z,21.80
2018-06-01T09:16:04.258Z,22.10
2018-06-01T09:18:07.689Z,22.10
2018-06-01T09:20:11.168Z,22.10
2018-06-01T09:22:15.809Z,21.90
2018-06-01T09:24:19.167Z,21.90
2018-06-01T09:26:22.605Z,21.90
2018-06-01T09:28:26.071Z,22.00
2018-06-01T09:30:29.476Z,22.00
2018-06-01T09:32:32.872Z,21.80
2018-06-01T09:34:37.297Z,21.60
2018-06-01T09:36:40.902Z,21.50
2018-06-01T09:38:44.283Z,21.30
2018-06-01T09:40:47.682Z,21.40
2018-06-01T09:42:51.100Z,21.60
2018-06-01T09:44:54.474Z,21.60
2018-06-01T09:46:59.264Z,21.70
2018-06-01T09:49:03.424Z,21.60
2018-06-01T09:51:07.873Z,21.60
2018-06-01T09:53:11.232Z,21.80
2018-06-01T09:55:15.355Z,21.70
2018-06-01T09:57:18.868Z,21.70
2018-06-01T09:59:22.312Z,22.00
2018-06-01T10:01:28.736Z,22.10
2018-06-01T10:03:32.152Z,22.00
2018-06-01T10:05:35.522Z,21.90
2018-06-01T10:07:39.733Z,21.70
2018-06-01T10:09:43.116Z,21.70
2018-06-01T10:11:46.590Z,21.80
2018-06-01T10:13:51.824Z,21.70
2018-06-01T10:15:55.986Z,21.70
2018-06-01T10:17:59.986Z,21.70
2018-06-01T10:20:04.607Z,21.40
2018-06-01T10:22:08.043Z,21.40
2018-06-01T10:24:11.757Z,21.40
2018-06-01T10:26:16.188Z,21.50
2018-06-01T10:28:19.849Z,21.50
2018-06-01T10:30:23.250Z,21.70
2018-06-01T10:32:27.736Z,22.10
2018-06-01T10:34:32.057Z,22.40
2018-06-01T10:36:35.554Z,22.40
2018-06-01T10:38:39.140Z,22.70
2018-06-01T10:40:51.943Z,22.50
2018-06-01T10:42:55.538Z,22.50
2018-06-01T10:44:59.720Z,22.30
2018-06-01T10:47:03.201Z,22.30
2018-06-01T10:49:06.666Z,22.10
2018-06-01T10:51:10.042Z,22.20
2018-06-01T10:53:14.672Z,22.30
2018-06-01T10:55:18.156Z,22.30
2018-06-01T10:57:21.859Z,22.30
2018-06-01T10:59:25.387Z,22.40
2018-06-01T11:01:29.045Z,22.40
2018-06-01T11:03:33.481Z,22.40
2018-06-01T11:05:37.682Z,22.30
2018-06-01T11:07:43.220Z,22.20
2018-06-01T11:09:46.588Z,22.20
2018-06-01T11:11:50.017Z,22.00
2018-06-01T11:13:53.653Z,21.80
2018-06-01T11:15:58.188Z,21.70
2018-06-01T11:18:02.656Z,21.60
2018-06-01T11:20:08.715Z,21.60
2018-06-01T11:22:14.733Z,21.60
2018-06-01T11:24:18.761Z,21.50
2018-06-01T11:26:22.420Z,21.40
2018-06-01T11:28:26.471Z,21.40
2018-06-01T11:30:30.044Z,21.50
2018-06-01T11:32:33.912Z,21.70
2018-06-01T11:34:37.376Z,22.00
2018-06-01T11:36:41.010Z,22.20
2018-06-01T11:38:45.061Z,22.40
2018-06-01T11:40:48.453Z,22.50
2018-06-01T11:42:52.607Z,22.80
2018-06-01T11:44:56.181Z,22.80
2018-06-01T11:47:00.808Z,23.00
2018-06-01T11:49:04.925Z,23.20
2018-06-01T11:51:08.315Z,23.30
2018-06-01T11:53:11.788Z,23.40
2018-06-01T11:55:15.150Z,23.50
2018-06-01T11:57:19.941Z,23.50
2018-06-01T11:59:23.333Z,23.30
2018-06-01T12:01:26.712Z,23.20
2018-06-01T12:03:30.143Z,23.00
2018-06-01T12:05:33.526Z,23.00
2018-06-01T12:07:37.820Z,23.00
2018-06-01T12:09:42.851Z,22.90
2018-06-01T12:11:48.181Z,23.00
2018-06-01T12:13:53.072Z,23.20
2018-06-01T12:15:56.704Z,23.60
2018-06-01T12:18:00.135Z,23.90
2018-06-01T12:20:05.307Z,24.20
2018-06-01T12:22:08.728Z,24.50
2018-06-01T12:24:12.126Z,24.60
2018-06-01T12:26:15.493Z,24.60
2018-06-01T12:28:18.890Z,24.60
2018-06-01T12:30:22.240Z,24.40
2018-06-01T12:32:25.645Z,24.20
2018-06-01T12:34:29.097Z,24.00
2018-06-01T12:36:33.255Z,23.40
2018-06-01T12:38:37.414Z,23.30
2018-06-01T12:40:40.814Z,23.30
2018-06-01T12:42:44.306Z,23.40
2018-06-01T12:44:47.673Z,23.30
2018-06-01T12:46:51.933Z,23.30
2018-06-01T12:48:56.302Z,23.30
2018-06-01T12:51:00.237Z,23.20
2018-06-01T12:53:03.808Z,23.00
2018-06-01T12:55:07.158Z,22.80
2018-06-01T12:57:11.367Z,22.60
2018-06-01T12:59:14.775Z,22.60
2018-06-01T13:01:18.917Z,21.80
2018-06-01T13:03:23.407Z,21.80
2018-06-01T13:05:27.596Z,21.30
2018-06-01T13:07:31.066Z,21.20
2018-06-01T13:09:34.485Z,21.00
2018-06-01T13:11:37.882Z,20.90
2018-06-01T13:13:41.315Z,20.80
2018-06-01T13:15:44.676Z,20.80
2018-06-01T13:17:48.808Z,20.70
2018-06-01T13:19:56.627Z,20.50
2018-06-01T13:21:59.982Z,20.50
2018-06-01T13:24:03.816Z,20.50
2018-06-01T13:26:07.229Z,20.50
2018-06-01T13:28:10.668Z,20.50
2018-06-01T13:30:14.028Z,20.50
2018-06-01T13:32:19.208Z,20.70
2018-06-01T13:34:22.642Z,20.70
2018-06-01T13:36:26.032Z,20.80
2018-06-01T13:38:29.420Z,20.90
2018-06-01T13:40:32.810Z,21.00
2018-06-01T13:42:36.204Z,21.10
2018-06-01T13:44:39.647Z,20.90
2018-06-01T13:46:43.000Z,21.00
2018-06-01T13:48:47.164Z,21.20
2018-06-01T13:50:50.539Z,21.20
2018-06-01T13:52:53.911Z,21.30
2018-06-01T13:54:58.276Z,21.40
2018-06-01T13:57:01.633Z,21.40
2018-06-01T13:59:05.022Z,21.40
2018-06-01T14:01:08.404Z,21.50
2018-06-01T14:03:11.779Z,21.60
2018-06-01T14:05:15.201Z,21.80
2018-06-01T14:07:18.558Z,22.00
2018-06-01T14:09:23.043Z,22.20
2018-06-01T14:11:26.418Z,22.30
2018-06-01T14:13:29.823Z,22.50
2018-06-01T14:15:33.210Z,22.70
2018-06-01T14:17:36.738Z,22.70
2018-06-01T14:19:40.906Z,22.80
2018-06-01T14:21:44.269Z,22.80
2018-06-01T14:23:47.662Z,22.60
2018-06-01T14:25:51.051Z,22.30
2018-06-01T14:27:54.428Z,22.00
2018-06-01T14:30:03.620Z,21.90
2018-06-01T14:32:07.052Z,21.80
2018-06-01T14:34:10.395Z,21.80
2018-06-01T14:36:13.909Z,21.70
2018-06-01T14:38:18.025Z,21.90
2018-06-01T14:40:21.462Z,21.80
2018-06-01T14:42:24.824Z,22.00
2018-06-01T14:44:28.967Z,22.40
2018-06-01T14:46:32.328Z,22.40
2018-06-01T14:48:35.682Z,22.50
2018-06-01T14:50:39.069Z,22.60
2018-06-01T14:52:42.460Z,22.60
2018-06-01T14:54:46.640Z,22.50
2018-06-01T14:56:49.997Z,22.50
2018-06-01T14:58:53.405Z,22.40
2018-06-01T15:00:56.801Z,22.40
2018-06-01T15:03:00.180Z,22.60
2018-06-01T15:05:04.460Z,23.00
2018-06-01T15:07:07.848Z,23.00
2018-06-01T15:09:11.278Z,23.10
2018-06-01T15:11:14.638Z,23.20
2018-06-01T15:13:18.129Z,23.30
2018-06-01T15:15:22.288Z,23.50
2018-06-01T15:17:26.707Z,23.50
2018-06-01T15:19:30.124Z,23.60
2018-06-01T15:21:33.495Z,23.70
2018-06-01T15:23:37.610Z,23.50
2018-06-01T15:25:42.816Z,23.50
2018-06-01T15:27:46.244Z,23.50
2018-06-01T15:29:49.685Z,23.50
2018-06-01T15:31:53.053Z,23.40
2018-06-01T15:33:56.459Z,23.40
2018-06-01T15:35:59.827Z,23.30
2018-06-01T15:38:03.187Z,23.30
2018-06-01T15:40:06.630Z,23.20
2018-06-01T15:42:10.005Z,23.00
2018-06-01T15:44:13.407Z,23.00
2018-06-01T15:46:16.842Z,22.90
2018-06-01T15:48:20.204Z,22.90
2018-06-01T15:50:23.650Z,23.00
2018-06-01T15:52:27.027Z,23.10
2018-06-01T15:54:30.422Z,23.30
2018-06-01T15:56:34.621Z,23.40
2018-06-01T15:58:39.812Z,23.80
2018-06-01T16:00:43.177Z,23.70
2018-06-01T16:02:46.637Z,24.00
2018-06-01T16:04:50.052Z,24.30
2018-06-01T16:06:53.472Z,24.40
2018-06-01T16:08:57.597Z,24.50
2018-06-01T16:11:01.041Z,24.50
2018-06-01T16:13:04.412Z,24.50
2018-06-01T16:15:08.584Z,24.50
2018-06-01T16:17:11.935Z,24.50
2018-06-01T16:19:16.166Z,24.30
2018-06-01T16:21:20.325Z,24.20
2018-06-01T16:23:23.682Z,24.20
2018-06-01T16:25:27.826Z,23.80
2018-06-01T16:27:31.286Z,23.90
2018-06-01T16:29:34.644Z,23.70
2018-06-01T16:31:38.041Z,23.70
2018-06-01T16:33:41.404Z,23.60
2018-06-01T16:35:44.780Z,23.60
2018-06-01T16:37:48.161Z,23.60
2018-06-01T16:39:51.632Z,23.50
2018-06-01T16:41:54.986Z,23.40
2018-06-01T16:43:58.327Z,23.40
2018-06-01T16:46:01.733Z,23.50
2018-06-01T16:48:05.863Z,23.50
2018-06-01T16:50:09.252Z,23.50
2018-06-01T16:52:14.393Z,23.40
2018-06-01T16:54:17.793Z,23.40
2018-06-01T16:56:21.153Z,23.30
2018-06-01T16:58:24.508Z,23.20
2018-06-01T17:00:27.938Z,23.20
2018-06-01T17:02:31.296Z,23.20
2018-06-01T17:04:34.726Z,23.20
2018-06-01T17:06:38.121Z,23.00
2018-06-01T17:08:41.514Z,23.00
2018-06-01T17:10:44.904Z,22.90
2018-06-01T17:12:49.065Z,22.70
2018-06-01T17:14:52.465Z,22.70
2018-06-01T17:16:55.856Z,22.70
2018-06-01T17:18:59.971Z,22.50
2018-06-01T17:21:04.191Z,22.50
2018-06-01T17:23:08.326Z,22.50
2018-06-01T17:25:12.439Z,22.50
2018-06-01T17:27:16.598Z,22.50
2018-06-01T17:29:19.949Z,22.50
2018-06-01T17:31:24.119Z,22.50
2018-06-01T17:33:27.474Z,22.50
2018-06-01T17:35:30.856Z,22.50
2018-06-01T17:37:34.207Z,22.50
2018-06-01T17:39:37.582Z,22.50
2018-06-01T17:41:40.993Z,22.40
2018-06-01T17:43:44.388Z,22.30
2018-06-01T17:45:48.545Z,22.20
2018-06-01T17:47:51.895Z,22.20
2018-06-01T17:49:55.315Z,22.10
2018-06-01T17:51:58.700Z,22.10
2018-06-01T17:54:02.068Z,22.00
2018-06-01T17:56:05.466Z,21.90
2018-06-01T17:58:08.940Z,21.90
2018-06-01T18:00:13.071Z,21.70
2018-06-01T18:02:16.485Z,21.70
2018-06-01T18:04:19.837Z,21.70
2018-06-01T18:06:23.248Z,21.70
2018-06-01T18:08:26.611Z,21.60
2018-06-01T18:10:29.973Z,21.60
2018-06-01T18:12:34.137Z,21.50
2018-06-01T18:14:38.517Z,21.50
2018-06-01T18:16:41.867Z,21.50
2018-06-01T18:18:45.265Z,21.50
2018-06-01T18:20:48.641Z,21.40
2018-06-01T18:22:52.066Z,21.40
2018-06-01T18:24:55.414Z,21.30
2018-06-01T18:27:00.791Z,21.40
2018-06-01T18:29:04.956Z,21.40
2018-06-01T18:31:08.400Z,21.30
2018-06-01T18:33:11.788Z,21.40
2018-06-01T18:35:15.147Z,21.30
2018-06-01T18:37:18.493Z,21.30
2018-06-01T18:39:21.885Z,21.30
2018-06-01T18:41:25.235Z,21.30
2018-06-01T18:43:29.398Z,21.20
2018-06-01T18:45:32.750Z,21.20
2018-06-01T18:47:36.874Z,21.10
2018-06-01T18:49:40.269Z,21.10
2018-06-01T18:51:44.407Z,21.00
2018-06-01T18:53:48.565Z,20.90
2018-06-01T18:55:51.924Z,20.90
2018-06-01T18:57:56.047Z,20.80
2018-06-01T18:59:59.447Z,20.80
2018-06-01T19:02:03.707Z,20.70
2018-06-01T19:04:07.092Z,20.70
2018-06-01T19:06:10.448Z,20.70
2018-06-01T19:08:14.814Z,20.60
2018-06-01T19:10:18.158Z,20.60
2018-06-01T19:12:21.521Z,20.50
2018-06-01T19:14:24.902Z,20.50
2018-06-01T19:16:29.040Z,20.40
2018-06-01T19:18:32.475Z,20.40
2018-06-01T19:20:35.857Z,20.40
2018-06-01T19:22:39.234Z,20.30
2018-06-01T19:24:43.389Z,20.30
2018-06-01T19:26:46.759Z,20.30
2018-06-01T19:28:51.018Z,20.20
2018-06-01T19:30:54.364Z,20.20
2018-06-01T19:32:57.719Z,20.10
2018-06-01T19:35:01.119Z,20.10
2018-06-01T19:37:04.463Z,20.00
2018-06-01T19:39:07.853Z,20.00
2018-06-01T19:41:11.202Z,20.00
2018-06-01T19:43:14.562Z,19.90
2018-06-01T19:45:17.962Z,19.90
2018-06-01T19:47:21.333Z,19.80
2018-06-01T19:49:24.744Z,19.80
2018-06-01T19:51:28.112Z,19.70
2018-06-01T19:53:32.230Z,19.60
2018-06-01T19:55:36.497Z,19.50
2018-06-01T19:57:39.855Z,19.50
2018-06-01T19:59:44.019Z,19.40
2018-06-01T20:01:51.229Z,19.40
2018-06-01T20:03:54.639Z,19.30
2018-06-01T20:05:57.988Z,19.30
2018-06-01T20:08:02.103Z,19.30
2018-06-01T20:10:06.359Z,19.30
2018-06-01T20:12:09.744Z,19.30
2018-06-01T20:14:13.199Z,19.30
2018-06-01T20:16:16.560Z,19.30
2018-06-01T20:18:19.970Z,19.30
2018-06-01T20:20:24.128Z,19.20
2018-06-01T20:22:27.490Z,19.20
2018-06-01T20:24:30.891Z,19.20
2018-06-01T20:26:34.254Z,19.10
2018-06-01T20:28:38.390Z,19.10
2018-06-01T20:30:41.816Z,19.10
2018-06-01T20:32:45.212Z,19.10
2018-06-01T20:34:48.602Z,19.00
2018-06-01T20:36:52.727Z,19.00
2018-06-01T20:38:56.091Z,19.00
2018-06-01T20:40:59.473Z,18.90
2018-06-01T20:43:02.836Z,18.90
2018-06-01T20:45:07.007Z,18.80
2018-06-01T20:47:10.388Z,18.80
2018-06-01T20:49:13.779Z,18.80
2018-06-01T20:51:17.145Z,18.70
2018-06-01T20:53:20.517Z,18.70
2018-06-01T20:55:23.912Z,18.70
2018-06-01T20:57:27.277Z,18.60
2018-06-01T20:59:30.684Z,18.60
2018-06-01T21:01:34.038Z,18.50
2018-06-01T21:03:37.404Z,18.50
2018-06-01T21:05:40.803Z,18.50
2018-06-01T21:07:44.174Z,18.50
2018-06-01T21:09:48.384Z,18.40
2018-06-01T21:11:51.724Z,18.40
2018-06-01T21:13:55.145Z,18.40
2018-06-01T21:15:58.584Z,18.40
2018-06-01T21:18:02.755Z,18.30
2018-06-01T21:20:06.169Z,18.30
2018-06-01T21:22:09.519Z,18.30
2018-06-01T21:24:12.887Z,18.30
2018-06-01T21:26:16.338Z,18.30
2018-06-01T21:28:20.454Z,18.20
2018-06-01T21:30:23.883Z,18.20
2018-06-01T21:32:27.232Z,18.20
2018-06-01T21:34:30.624Z,18.20
2018-06-01T21:36:33.986Z,18.20
2018-06-01T21:38:38.099Z,18.20
2018-06-01T21:40:41.487Z,18.10
2018-06-01T21:42:45.818Z,18.10
2018-06-01T21:44:49.994Z,18.10
2018-06-01T21:46:53.357Z,18.00
2018-06-01T21:48:57.468Z,18.00
2018-06-01T21:51:01.633Z,18.00
2018-06-01T21:53:05.791Z,17.90
2018-06-01T21:55:09.239Z,17.90
2018-06-01T21:57:12.615Z,17.80
2018-06-01T21:59:16.745Z,17.80
2018-06-01T22:01:20.131Z,17.80
2018-06-01T22:03:23.577Z,17.80
2018-06-01T22:05:27.104Z,17.80
2018-06-01T22:07:30.459Z,17.80
2018-06-01T22:09:34.941Z,17.70
2018-06-01T22:11:38.394Z,17.70
2018-06-01T22:13:42.509Z,17.60
2018-06-01T22:15:46.676Z,17.50
2018-06-01T22:17:50.037Z,17.50
2018-06-01T22:19:53.400Z,17.50
2018-06-01T22:21:56.800Z,17.40
2018-06-01T22:24:00.177Z,17.40
2018-06-01T22:26:03.577Z,17.40
2018-06-01T22:28:06.978Z,17.30
2018-06-01T22:30:10.368Z,17.30
2018-06-01T22:32:13.744Z,17.30
2018-06-01T22:34:17.101Z,17.30
2018-06-01T22:36:20.479Z,17.30
2018-06-01T22:38:23.857Z,17.30
2018-06-01T22:40:27.248Z,17.20
2018-06-01T22:42:30.593Z,17.20
2018-06-01T22:44:33.943Z,17.20
2018-06-01T22:46:37.351Z,17.20
2018-06-01T22:48:40.709Z,17.20
2018-06-01T22:50:44.105Z,17.20
2018-06-01T22:52:48.283Z,17.10
2018-06-01T22:54:51.672Z,17.10
2018-06-01T22:56:55.057Z,17.10
2018-06-01T22:58:58.414Z,17.00
2018-06-01T23:01:01.815Z,17.00
2018-06-01T23:03:05.951Z,16.90
2018-06-01T23:05:09.340Z,16.90
2018-06-01T23:07:13.507Z,16.80
2018-06-01T23:09:16.867Z,16.80
2018-06-01T23:11:21.039Z,16.80
2018-06-01T23:13:24.398Z,16.70
2018-06-01T23:15:27.789Z,16.80
2018-06-01T23:17:31.209Z,16.80
2018-06-01T23:19:34.789Z,16.70
2018-06-01T23:21:38.192Z,16.70
2018-06-01T23:23:42.329Z,16.70
2018-06-01T23:25:46.450Z,16.70
2018-06-01T23:27:49.850Z,16.60
2018-06-01T23:29:53.963Z,16.70
2018-06-01T23:31:59.141Z,16.70
2018-06-01T23:34:02.497Z,16.60
2018-06-01T23:36:05.860Z,16.70
2018-06-01T23:38:09.291Z,16.70
2018-06-01T23:40:13.656Z,16.60
2018-06-01T23:42:17.815Z,16.60
2018-06-01T23:44:21.167Z,16.60
2018-06-01T23:46:25.328Z,16.60
2018-06-01T23:48:28.701Z,16.60
2018-06-01T23:50:32.835Z,16.60
2018-06-01T23:52:36.345Z,16.60
2018-06-01T23:54:39.718Z,16.60
2018-06-01T23:56:43.874Z,16.60
2018-06-01T23:58:47.252Z,16.60
